Burnside, LA (70738)

11:24 PM CDT on August 20, 2014 (GMT -0500)
Lake Park | Change Station
CLOSE
Current Station
Personal Weather Station
Location: Gonzales, LA
Elevation: 7 ft
Nearby Weather Stations

Elev 7 ft 30.21 °N, 90.88 °W | Updated 1 minute ago

Clear
Clear
73.8 °F
Feels Like 71 °F
N
0.0
Wind Variable Wind from NE

Today
High -- | Low -- °F
--% Chance of Precip.
Yesterday
High -- | Low -- °F
Precip. -- in
6:33 AM 7:39 PM
Waning Crescent, 17% visible
Pressure 30.07 in
Visibility 10.0 miles
Clouds Clear
Heat Index 71 °F
Dew Point 71 °F
Humidity 92%
Rainfall 0.14 in
Snow Depth Not available.
UV 0 out of 12
Pollen 7.30 out of 12
Air Quality Not available.
Flu Activity Not available.
METAR KL38 210415Z AUTO 00000KT 10SM CLR 24/24 A3007 RMK AO2 T02400240

More Conditions Fewer Conditions

Pressure 30.07 in
Visibility 10.0 miles
Clouds Clear
Heat Index 71 °F
Dew Point 71 °F
Humidity 92%
Rainfall 0.14 in
Snow Depth Not available.
UV 0 out of 12
Pollen 7.30 out of 12
Air Quality Not available.
Flu Activity Not available.
METAR KL38 210415Z AUTO 00000KT 10SM CLR 24/24 A3007 RMK AO2 T02400240

More Conditions Fewer Conditions

10-Day Weather Forecast

Almanac

Astronomy

Aug. 20, 2014 Rise Set
Actual Time 6:33 AM CDT 7:39 PM CDT
Civil Twilight 6:08 AM CDT 8:04 PM CDT
Nautical Twilight 5:39 AM CDT 8:34 PM CDT
Astronomical Twilight 5:08 AM CDT 9:04 PM CDT
Moon 2:21 AM CDT (8/20) 4:17 PM CDT (8/20)
Length of Visible Light 13h 55m
Length of Day
13h 05m
Tomorrow will be 1m 38s shorter.
Waning Crescent, 17% of the Moon is Illuminated
Aug 21
Waning Crescent
Aug 25
New
Sep 2
First Quarter
Sep 8
Full
Sep 15
Last Quarter

Today's Extremes

State Highs State Lows

Community

WunderPhotos

Upload Photos

1,745,852 photos uploaded!

Nearby

Snow Depth

Station Depth Elevation
No new snow has been reported.

Earthquake Activity

City Distance Mag. Time & Date
No recent earthquake activity has been reported nearby.
Minimum magnitude displayed is 2.5.

Coastal Water Temperatures

Place Temperature
New Canal, LA 84.0 °F
Shell Beach, LA 82.0 °F
Bayou Gauche, LA 86.0 °F

Nearby Weather Stations